sensor_id;sensor_type;location;lat;lon;timestamp;temperature;humidity
16513;DHT22;8369;48.030;11.598;2022-08-16T00:01:22;20.10;99.60
16513;DHT22;8369;48.030;11.598;2022-08-16T00:03:48;20.10;99.60
16513;DHT22;8369;48.030;11.598;2022-08-16T00:06:14;20.10;99.30
16513;DHT22;8369;48.030;11.598;2022-08-16T00:08:41;20.10;99.50
16513;DHT22;8369;48.030;11.598;2022-08-16T00:11:10;20.10;99.40
16513;DHT22;8369;48.030;11.598;2022-08-16T00:13:36;20.10;99.30
16513;DHT22;8369;48.030;11.598;2022-08-16T00:16:03;20.10;99.60
16513;DHT22;8369;48.030;11.598;2022-08-16T00:18:29;20.10;99.00
16513;DHT22;8369;48.030;11.598;2022-08-16T00:20:55;20.10;99.40
16513;DHT22;8369;48.030;11.598;2022-08-16T00:23:21;20.10;99.70
16513;DHT22;8369;48.030;11.598;2022-08-16T00:25:47;20.10;99.60
16513;DHT22;8369;48.030;11.598;2022-08-16T00:28:14;20.10;99.50
16513;DHT22;8369;48.030;11.598;2022-08-16T00:30:40;20.10;99.60
16513;DHT22;8369;48.030;11.598;2022-08-16T00:33:06;20.10;99.40
16513;DHT22;8369;48.030;11.598;2022-08-16T00:35:36;20.10;99.60
16513;DHT22;8369;48.030;11.598;2022-08-16T00:38:04;20.00;99.60
16513;DHT22;8369;48.030;11.598;2022-08-16T00:40:40;20.00;99.50
16513;DHT22;8369;48.030;11.598;2022-08-16T00:43:10;20.00;99.60
16513;DHT22;8369;48.030;11.598;2022-08-16T00:45:52;20.00;99.50
16513;DHT22;8369;48.030;11.598;2022-08-16T00:48:21;20.00;99.90
16513;DHT22;8369;48.030;11.598;2022-08-16T00:50:50;20.00;99.80
16513;DHT22;8369;48.030;11.598;2022-08-16T00:53:16;19.90;99.90
16513;DHT22;8369;48.030;11.598;2022-08-16T00:55:48;19.90;99.80
16513;DHT22;8369;48.030;11.598;2022-08-16T00:58:17;19.90;99.90
16513;DHT22;8369;48.030;11.598;2022-08-16T01:00:44;19.90;99.90
16513;DHT22;8369;48.030;11.598;2022-08-16T01:03:13;19.90;99.90
16513;DHT22;8369;48.030;11.598;2022-08-16T01:05:41;19.90;99.70
16513;DHT22;8369;48.030;11.598;2022-08-16T01:08:09;19.90;99.90
16513;DHT22;8369;48.030;11.598;2022-08-16T01:10:39;19.90;99.90
16513;DHT22;8369;48.030;11.598;2022-08-16T01:13:26;19.90;99.80
16513;DHT22;8369;48.030;11.598;2022-08-16T01:15:57;19.90;99.70
16513;DHT22;8369;48.030;11.598;2022-08-16T01:18:29;19.90;99.50
16513;DHT22;8369;48.030;11.598;2022-08-16T01:21:20;19.90;99.60
16513;DHT22;8369;48.030;11.598;2022-08-16T01:26:27;19.90;99.90
16513;DHT22;8369;48.030;11.598;2022-08-16T01:28:57;19.90;99.80
16513;DHT22;8369;48.030;11.598;2022-08-16T01:31:25;19.90;99.90
16513;DHT22;8369;48.030;11.598;2022-08-16T01:33:52;19.90;99.50
16513;DHT22;8369;48.030;11.598;2022-08-16T01:36:19;19.90;99.70
16513;DHT22;8369;48.030;11.598;2022-08-16T01:38:47;19.90;99.70
16513;DHT22;8369;48.030;11.598;2022-08-16T01:41:24;19.90;99.90
16513;DHT22;8369;48.030;11.598;2022-08-16T01:43:51;19.90;99.80
16513;DHT22;8369;48.030;11.598;2022-08-16T01:46:29;19.90;99.90
16513;DHT22;8369;48.030;11.598;2022-08-16T01:49:05;19.90;99.90
16513;DHT22;8369;48.030;11.598;2022-08-16T01:51:32;19.90;99.90
16513;DHT22;8369;48.030;11.598;2022-08-16T01:53:58;19.90;99.90
16513;DHT22;8369;48.030;11.598;2022-08-16T01:56:25;19.90;99.90
16513;DHT22;8369;48.030;11.598;2022-08-16T01:58:52;19.90;99.90
16513;DHT22;8369;48.030;11.598;2022-08-16T02:01:22;19.90;99.90
16513;DHT22;8369;48.030;11.598;2022-08-16T02:03:52;19.90;99.90
16513;DHT22;8369;48.030;11.598;2022-08-16T02:06:19;19.80;99.90
16513;DHT22;8369;48.030;11.598;2022-08-16T02:08:45;19.80;99.90
16513;DHT22;8369;48.030;11.598;2022-08-16T02:11:13;19.80;99.90
16513;DHT22;8369;48.030;11.598;2022-08-16T02:13:41;19.80;99.90
16513;DHT22;8369;48.030;11.598;2022-08-16T02:16:08;19.80;99.90
16513;DHT22;8369;48.030;11.598;2022-08-16T02:18:34;19.70;99.90
16513;DHT22;8369;48.030;11.598;2022-08-16T02:21:00;19.70;99.90
16513;DHT22;8369;48.030;11.598;2022-08-16T02:23:28;19.70;99.90
16513;DHT22;8369;48.030;11.598;2022-08-16T02:25:53;19.70;99.90
16513;DHT22;8369;48.030;11.598;2022-08-16T02:28:25;19.70;99.90
16513;DHT22;8369;48.030;11.598;2022-08-16T02:30:53;19.70;99.90
16513;DHT22;8369;48.030;11.598;2022-08-16T02:33:23;19.70;99.90
16513;DHT22;8369;48.030;11.598;2022-08-16T02:35:49;19.60;99.90
16513;DHT22;8369;48.030;11.598;2022-08-16T02:38:15;19.60;99.90
16513;DHT22;8369;48.030;11.598;2022-08-16T02:40:41;19.60;99.90
16513;DHT22;8369;48.030;11.598;2022-08-16T02:43:08;19.50;99.90
16513;DHT22;8369;48.030;11.598;2022-08-16T02:45:34;19.50;99.90
16513;DHT22;8369;48.030;11.598;2022-08-16T02:47:59;19.40;99.90
16513;DHT22;8369;48.030;11.598;2022-08-16T02:50:26;19.40;99.90
16513;DHT22;8369;48.030;11.598;2022-08-16T02:52:52;19.30;99.90
16513;DHT22;8369;48.030;11.598;2022-08-16T02:55:18;19.30;99.90
16513;DHT22;8369;48.030;11.598;2022-08-16T02:57:44;19.20;99.90
16513;DHT22;8369;48.030;11.598;2022-08-16T03:00:11;19.20;99.90
16513;DHT22;8369;48.030;11.598;2022-08-16T03:02:39;19.10;99.90
16513;DHT22;8369;48.030;11.598;2022-08-16T03:05:08;19.10;99.90
16513;DHT22;8369;48.030;11.598;2022-08-16T03:07:34;19.10;99.90
16513;DHT22;8369;48.030;11.598;2022-08-16T03:10:01;19.10;99.90
16513;DHT22;8369;48.030;11.598;2022-08-16T03:12:27;19.10;99.90
16513;DHT22;8369;48.030;11.598;2022-08-16T03:14:52;19.00;99.90
16513;DHT22;8369;48.030;11.598;2022-08-16T03:17:18;19.00;99.90
16513;DHT22;8369;48.030;11.598;2022-08-16T03:19:44;19.00;99.90
16513;DHT22;8369;48.030;11.598;2022-08-16T03:22:10;18.90;99.90
16513;DHT22;8369;48.030;11.598;2022-08-16T03:24:36;18.90;99.90
16513;DHT22;8369;48.030;11.598;2022-08-16T03:27:03;18.90;99.90
16513;DHT22;8369;48.030;11.598;2022-08-16T03:29:30;18.80;99.90
16513;DHT22;8369;48.030;11.598;2022-08-16T03:32:00;18.80;99.90
16513;DHT22;8369;48.030;11.598;2022-08-16T03:34:28;18.70;99.90
16513;DHT22;8369;48.030;11.598;2022-08-16T03:36:54;18.70;99.90
16513;DHT22;8369;48.030;11.598;2022-08-16T03:39:20;18.60;99.90
16513;DHT22;8369;48.030;11.598;2022-08-16T03:41:46;18.60;99.90
16513;DHT22;8369;48.030;11.598;2022-08-16T03:44:12;18.60;99.90
16513;DHT22;8369;48.030;11.598;2022-08-16T03:46:39;18.50;99.90
16513;DHT22;8369;48.030;11.598;2022-08-16T03:49:05;18.50;99.90
16513;DHT22;8369;48.030;11.598;2022-08-16T03:51:35;18.50;99.90
16513;DHT22;8369;48.030;11.598;2022-08-16T03:54:01;18.50;99.90
16513;DHT22;8369;48.030;11.598;2022-08-16T03:56:27;18.40;99.90
16513;DHT22;8369;48.030;11.598;2022-08-16T03:58:53;18.40;99.90
16513;DHT22;8369;48.030;11.598;2022-08-16T04:01:23;18.40;99.90
16513;DHT22;8369;48.030;11.598;2022-08-16T04:03:51;18.30;99.90
16513;DHT22;8369;48.030;11.598;2022-08-16T04:06:17;18.30;99.90
16513;DHT22;8369;48.030;11.598;2022-08-16T04:08:43;18.30;99.90
16513;DHT22;8369;48.030;11.598;2022-08-16T04:11:09;18.20;99.90
16513;DHT22;8369;48.030;11.598;2022-08-16T04:13:35;18.10;99.90
16513;DHT22;8369;48.030;11.598;2022-08-16T04:16:01;18.10;99.90
16513;DHT22;8369;48.030;11.598;2022-08-16T04:18:28;18.10;99.90
16513;DHT22;8369;48.030;11.598;2022-08-16T04:20:55;18.10;99.90
16513;DHT22;8369;48.030;11.598;2022-08-16T04:23:21;18.00;99.90
16513;DHT22;8369;48.030;11.598;2022-08-16T04:25:49;18.00;99.90
16513;DHT22;8369;48.030;11.598;2022-08-16T04:28:15;18.00;99.90
16513;DHT22;8369;48.030;11.598;2022-08-16T04:30:41;18.00;99.90
16513;DHT22;8369;48.030;11.598;2022-08-16T04:33:10;18.00;99.90
16513;DHT22;8369;48.030;11.598;2022-08-16T04:35:36;17.90;99.90
16513;DHT22;8369;48.030;11.598;2022-08-16T04:38:03;17.90;99.90
16513;DHT22;8369;48.030;11.598;2022-08-16T04:40:30;17.90;99.90
16513;DHT22;8369;48.030;11.598;2022-08-16T04:42:56;17.80;99.90
16513;DHT22;8369;48.030;11.598;2022-08-16T04:45:31;17.80;99.90
16513;DHT22;8369;48.030;11.598;2022-08-16T04:47:56;17.80;99.90
16513;DHT22;8369;48.030;11.598;2022-08-16T04:50:25;17.80;99.90
16513;DHT22;8369;48.030;11.598;2022-08-16T04:52:53;17.80;99.90
16513;DHT22;8369;48.030;11.598;2022-08-16T04:55:23;17.80;99.90
16513;DHT22;8369;48.030;11.598;2022-08-16T04:57:53;17.80;99.90
16513;DHT22;8369;48.030;11.598;2022-08-16T05:00:25;17.80;99.90
16513;DHT22;8369;48.030;11.598;2022-08-16T05:03:01;17.80;99.90
16513;DHT22;8369;48.030;11.598;2022-08-16T05:05:29;17.80;99.90
16513;DHT22;8369;48.030;11.598;2022-08-16T05:07:55;17.70;99.90
16513;DHT22;8369;48.030;11.598;2022-08-16T05:10:22;17.80;99.90
16513;DHT22;8369;48.030;11.598;2022-08-16T05:12:50;17.80;99.90
16513;DHT22;8369;48.030;11.598;2022-08-16T05:15:16;17.80;99.90
16513;DHT22;8369;48.030;11.598;2022-08-16T05:17:42;17.80;99.90
16513;DHT22;8369;48.030;11.598;2022-08-16T05:20:09;17.80;99.90
16513;DHT22;8369;48.030;11.598;2022-08-16T05:22:38;17.80;99.90
16513;DHT22;8369;48.030;11.598;2022-08-16T05:25:06;17.80;99.90
16513;DHT22;8369;48.030;11.598;2022-08-16T05:27:32;17.80;99.90
16513;DHT22;8369;48.030;11.598;2022-08-16T05:29:58;17.80;99.90
16513;DHT22;8369;48.030;11.598;2022-08-16T05:32:27;17.80;99.90
16513;DHT22;8369;48.030;11.598;2022-08-16T05:34:52;17.90;99.90
16513;DHT22;8369;48.030;11.598;2022-08-16T05:37:19;17.80;99.90
16513;DHT22;8369;48.030;11.598;2022-08-16T05:39:48;17.80;99.90
16513;DHT22;8369;48.030;11.598;2022-08-16T05:42:13;17.80;99.90
16513;DHT22;8369;48.030;11.598;2022-08-16T05:44:39;17.80;99.90
16513;DHT22;8369;48.030;11.598;2022-08-16T05:47:05;17.80;99.90
16513;DHT22;8369;48.030;11.598;2022-08-16T05:49:31;17.80;99.90
16513;DHT22;8369;48.030;11.598;2022-08-16T05:51:57;17.70;99.90
16513;DHT22;8369;48.030;11.598;2022-08-16T05:54:25;17.80;99.90
16513;DHT22;8369;48.030;11.598;2022-08-16T05:56:54;17.80;99.90
16513;DHT22;8369;48.030;11.598;2022-08-16T05:59:20;17.80;99.90
16513;DHT22;8369;48.030;11.598;2022-08-16T06:01:46;17.90;99.90
16513;DHT22;8369;48.030;11.598;2022-08-16T06:04:16;17.90;99.90
16513;DHT22;8369;48.030;11.598;2022-08-16T06:06:43;18.00;99.90
16513;DHT22;8369;48.030;11.598;2022-08-16T06:09:10;18.10;99.90
16513;DHT22;8369;48.030;11.598;2022-08-16T06:11:37;18.20;99.90
16513;DHT22;8369;48.030;11.598;2022-08-16T06:14:03;18.30;99.90
16513;DHT22;8369;48.030;11.598;2022-08-16T06:16:30;18.40;99.90
16513;DHT22;8369;48.030;11.598;2022-08-16T06:18:57;18.60;99.90
16513;DHT22;8369;48.030;11.598;2022-08-16T06:21:23;18.70;99.90
16513;DHT22;8369;48.030;11.598;2022-08-16T06:23:53;18.90;99.90
16513;DHT22;8369;48.030;11.598;2022-08-16T06:26:19;19.00;99.90
16513;DHT22;8369;48.030;11.598;2022-08-16T06:28:45;19.10;99.90
16513;DHT22;8369;48.030;11.598;2022-08-16T06:31:16;19.20;99.90
16513;DHT22;8369;48.030;11.598;2022-08-16T06:33:42;19.30;99.90
16513;DHT22;8369;48.030;11.598;2022-08-16T06:36:12;19.40;99.80
16513;DHT22;8369;48.030;11.598;2022-08-16T06:38:38;19.60;99.60
16513;DHT22;8369;48.030;11.598;2022-08-16T06:41:06;19.70;99.00
16513;DHT22;8369;48.030;11.598;2022-08-16T06:43:33;19.80;98.30
16513;DHT22;8369;48.030;11.598;2022-08-16T06:46:00;20.00;98.20
16513;DHT22;8369;48.030;11.598;2022-08-16T06:48:26;20.10;97.60
16513;DHT22;8369;48.030;11.598;2022-08-16T06:50:52;20.20;97.00
16513;DHT22;8369;48.030;11.598;2022-08-16T06:53:20;20.30;96.80
16513;DHT22;8369;48.030;11.598;2022-08-16T06:55:51;20.40;96.60
16513;DHT22;8369;48.030;11.598;2022-08-16T06:58:18;20.60;96.30
16513;DHT22;8369;48.030;11.598;2022-08-16T07:00:47;20.70;96.10
16513;DHT22;8369;48.030;11.598;2022-08-16T07:03:16;20.80;95.80
16513;DHT22;8369;48.030;11.598;2022-08-16T07:05:44;20.90;95.30
16513;DHT22;8369;48.030;11.598;2022-08-16T07:08:14;21.00;94.60
16513;DHT22;8369;48.030;11.598;2022-08-16T07:10:39;21.20;94.60
16513;DHT22;8369;48.030;11.598;2022-08-16T07:13:06;21.30;94.20
16513;DHT22;8369;48.030;11.598;2022-08-16T07:15:32;21.40;93.40
16513;DHT22;8369;48.030;11.598;2022-08-16T07:18:01;21.50;92.80
16513;DHT22;8369;48.030;11.598;2022-08-16T07:20:27;21.70;92.80
16513;DHT22;8369;48.030;11.598;2022-08-16T07:22:53;21.80;90.60
16513;DHT22;8369;48.030;11.598;2022-08-16T07:25:21;21.90;90.40
16513;DHT22;8369;48.030;11.598;2022-08-16T07:27:47;22.00;89.70
16513;DHT22;8369;48.030;11.598;2022-08-16T07:30:15;22.10;90.00
16513;DHT22;8369;48.030;11.598;2022-08-16T07:32:41;22.20;89.40
16513;DHT22;8369;48.030;11.598;2022-08-16T07:35:07;22.30;88.20
16513;DHT22;8369;48.030;11.598;2022-08-16T07:37:33;22.40;86.00
16513;DHT22;8369;48.030;11.598;2022-08-16T07:39:59;22.50;85.10
16513;DHT22;8369;48.030;11.598;2022-08-16T07:42:26;22.60;84.40
16513;DHT22;8369;48.030;11.598;2022-08-16T07:44:52;22.70;84.40
16513;DHT22;8369;48.030;11.598;2022-08-16T07:47:19;22.80;82.40
16513;DHT22;8369;48.030;11.598;2022-08-16T07:49:45;22.80;81.90
16513;DHT22;8369;48.030;11.598;2022-08-16T07:52:14;22.90;80.20
16513;DHT22;8369;48.030;11.598;2022-08-16T07:54:40;22.90;80.30
16513;DHT22;8369;48.030;11.598;2022-08-16T07:57:06;23.00;80.20
16513;DHT22;8369;48.030;11.598;2022-08-16T07:59:32;23.00;79.30
16513;DHT22;8369;48.030;11.598;2022-08-16T08:01:57;23.10;77.60
16513;DHT22;8369;48.030;11.598;2022-08-16T08:04:23;23.10;78.40
16513;DHT22;8369;48.030;11.598;2022-08-16T08:06:50;23.20;78.50
16513;DHT22;8369;48.030;11.598;2022-08-16T08:09:17;23.30;78.80
16513;DHT22;8369;48.030;11.598;2022-08-16T08:11:43;23.40;79.10
16513;DHT22;8369;48.030;11.598;2022-08-16T08:14:10;23.50;76.20
16513;DHT22;8369;48.030;11.598;2022-08-16T08:16:39;23.50;77.10
16513;DHT22;8369;48.030;11.598;2022-08-16T08:19:05;23.60;77.80
16513;DHT22;8369;48.030;11.598;2022-08-16T08:21:49;23.70;78.20
16513;DHT22;8369;48.030;11.598;2022-08-16T08:24:18;23.80;77.30
16513;DHT22;8369;48.030;11.598;2022-08-16T08:26:44;23.80;77.40
16513;DHT22;8369;48.030;11.598;2022-08-16T08:29:10;23.90;76.70
16513;DHT22;8369;48.030;11.598;2022-08-16T08:31:36;24.00;75.80
16513;DHT22;8369;48.030;11.598;2022-08-16T08:34:03;24.10;74.70
16513;DHT22;8369;48.030;11.598;2022-08-16T08:36:31;24.10;75.00
16513;DHT22;8369;48.030;11.598;2022-08-16T08:39:04;24.20;75.80
16513;DHT22;8369;48.030;11.598;2022-08-16T08:41:30;24.30;75.30
16513;DHT22;8369;48.030;11.598;2022-08-16T08:43:59;24.40;74.10
16513;DHT22;8369;48.030;11.598;2022-08-16T08:46:25;24.50;74.30
16513;DHT22;8369;48.030;11.598;2022-08-16T08:48:52;24.60;75.00
16513;DHT22;8369;48.030;11.598;2022-08-16T08:51:19;24.60;72.90
16513;DHT22;8369;48.030;11.598;2022-08-16T08:53:45;24.70;74.10
16513;DHT22;8369;48.030;11.598;2022-08-16T08:56:14;24.80;72.90
16513;DHT22;8369;48.030;11.598;2022-08-16T08:58:41;24.80;71.10
16513;DHT22;8369;48.030;11.598;2022-08-16T09:01:07;24.80;72.30
16513;DHT22;8369;48.030;11.598;2022-08-16T09:03:37;24.90;72.90
16513;DHT22;8369;48.030;11.598;2022-08-16T09:06:04;25.00;72.70
16513;DHT22;8369;48.030;11.598;2022-08-16T09:08:30;25.00;70.40
16513;DHT22;8369;48.030;11.598;2022-08-16T09:10:58;25.00;69.20
16513;DHT22;8369;48.030;11.598;2022-08-16T09:13:25;24.90;70.60
16513;DHT22;8369;48.030;11.598;2022-08-16T09:15:53;24.90;70.90
16513;DHT22;8369;48.030;11.598;2022-08-16T09:18:22;25.00;71.70
16513;DHT22;8369;48.030;11.598;2022-08-16T09:20:52;25.10;71.10
16513;DHT22;8369;48.030;11.598;2022-08-16T09:23:18;25.10;70.10
16513;DHT22;8369;48.030;11.598;2022-08-16T09:25:47;25.20;70.60
16513;DHT22;8369;48.030;11.598;2022-08-16T09:28:14;25.20;69.50
16513;DHT22;8369;48.030;11.598;2022-08-16T09:30:41;25.40;68.80
16513;DHT22;8369;48.030;11.598;2022-08-16T09:33:09;25.40;66.90
16513;DHT22;8369;48.030;11.598;2022-08-16T09:35:36;25.50;68.20
16513;DHT22;8369;48.030;11.598;2022-08-16T09:38:03;25.60;65.70
16513;DHT22;8369;48.030;11.598;2022-08-16T09:40:29;25.70;66.60
16513;DHT22;8369;48.030;11.598;2022-08-16T09:42:58;25.80;65.30
16513;DHT22;8369;48.030;11.598;2022-08-16T09:45:24;25.90;65.60
16513;DHT22;8369;48.030;11.598;2022-08-16T09:47:52;26.00;64.80
16513;DHT22;8369;48.030;11.598;2022-08-16T09:50:19;26.10;65.60
16513;DHT22;8369;48.030;11.598;2022-08-16T09:52:45;26.10;65.90
16513;DHT22;8369;48.030;11.598;2022-08-16T09:55:12;26.20;65.70
16513;DHT22;8369;48.030;11.598;2022-08-16T09:57:39;26.30;63.70
16513;DHT22;8369;48.030;11.598;2022-08-16T10:00:08;26.40;64.50
16513;DHT22;8369;48.030;11.598;2022-08-16T10:02:35;26.50;65.00
16513;DHT22;8369;48.030;11.598;2022-08-16T10:05:02;26.60;65.00
16513;DHT22;8369;48.030;11.598;2022-08-16T10:07:29;26.70;60.70
16513;DHT22;8369;48.030;11.598;2022-08-16T10:09:55;26.70;60.70
16513;DHT22;8369;48.030;11.598;2022-08-16T10:12:26;26.70;61.50
16513;DHT22;8369;48.030;11.598;2022-08-16T10:15:18;26.70;62.10
16513;DHT22;8369;48.030;11.598;2022-08-16T10:17:52;26.80;62.40
16513;DHT22;8369;48.030;11.598;2022-08-16T10:20:18;26.80;62.20
16513;DHT22;8369;48.030;11.598;2022-08-16T10:22:51;26.80;61.30
16513;DHT22;8369;48.030;11.598;2022-08-16T10:25:17;26.70;62.20
16513;DHT22;8369;48.030;11.598;2022-08-16T10:27:45;26.60;61.80
16513;DHT22;8369;48.030;11.598;2022-08-16T10:30:11;26.60;62.50
16513;DHT22;8369;48.030;11.598;2022-08-16T10:32:37;26.70;61.50
16513;DHT22;8369;48.030;11.598;2022-08-16T10:35:03;26.70;61.20
16513;DHT22;8369;48.030;11.598;2022-08-16T10:37:30;26.90;59.80
16513;DHT22;8369;48.030;11.598;2022-08-16T10:39:56;26.90;60.10
16513;DHT22;8369;48.030;11.598;2022-08-16T10:42:21;27.00;58.10
16513;DHT22;8369;48.030;11.598;2022-08-16T10:44:48;27.00;58.50
16513;DHT22;8369;48.030;11.598;2022-08-16T10:47:14;27.10;58.10
16513;DHT22;8369;48.030;11.598;2022-08-16T10:49:40;27.20;57.90
16513;DHT22;8369;48.030;11.598;2022-08-16T10:52:06;27.10;58.20
16513;DHT22;8369;48.030;11.598;2022-08-16T10:54:33;27.10;58.50
16513;DHT22;8369;48.030;11.598;2022-08-16T10:57:00;27.10;58.40
16513;DHT22;8369;48.030;11.598;2022-08-16T10:59:28;27.00;58.50
16513;DHT22;8369;48.030;11.598;2022-08-16T11:01:56;26.90;58.50
16513;DHT22;8369;48.030;11.598;2022-08-16T11:04:25;26.90;58.80
16513;DHT22;8369;48.030;11.598;2022-08-16T11:06:52;26.90;58.70
16513;DHT22;8369;48.030;11.598;2022-08-16T11:09:18;27.00;59.40
16513;DHT22;8369;48.030;11.598;2022-08-16T11:11:44;27.10;59.10
16513;DHT22;8369;48.030;11.598;2022-08-16T11:14:10;27.10;58.70
16513;DHT22;8369;48.030;11.598;2022-08-16T11:16:38;27.20;57.70
16513;DHT22;8369;48.030;11.598;2022-08-16T11:19:04;27.20;57.50
16513;DHT22;8369;48.030;11.598;2022-08-16T11:21:31;27.40;57.50
16513;DHT22;8369;48.030;11.598;2022-08-16T11:23:57;27.40;56.20
16513;DHT22;8369;48.030;11.598;2022-08-16T11:26:23;27.50;56.50
16513;DHT22;8369;48.030;11.598;2022-08-16T11:28:49;27.60;55.10
16513;DHT22;8369;48.030;11.598;2022-08-16T11:31:18;27.60;56.00
16513;DHT22;8369;48.030;11.598;2022-08-16T11:33:43;27.70;56.40
16513;DHT22;8369;48.030;11.598;2022-08-16T11:36:09;27.80;56.10
16513;DHT22;8369;48.030;11.598;2022-08-16T11:38:35;27.80;55.70
16513;DHT22;8369;48.030;11.598;2022-08-16T11:41:02;27.90;54.70
16513;DHT22;8369;48.030;11.598;2022-08-16T11:43:30;28.00;55.10
16513;DHT22;8369;48.030;11.598;2022-08-16T11:45:59;27.90;54.00
16513;DHT22;8369;48.030;11.598;2022-08-16T11:48:29;28.00;54.80
16513;DHT22;8369;48.030;11.598;2022-08-16T11:50:58;28.10;55.10
16513;DHT22;8369;48.030;11.598;2022-08-16T11:53:26;28.20;55.00
16513;DHT22;8369;48.030;11.598;2022-08-16T11:55:53;28.30;53.40
16513;DHT22;8369;48.030;11.598;2022-08-16T11:58:19;28.40;52.50
16513;DHT22;8369;48.030;11.598;2022-08-16T12:00:46;28.50;53.00
16513;DHT22;8369;48.030;11.598;2022-08-16T12:03:12;28.50;53.30
16513;DHT22;8369;48.030;11.598;2022-08-16T12:05:42;28.60;51.80
16513;DHT22;8369;48.030;11.598;2022-08-16T12:08:12;28.60;53.40
16513;DHT22;8369;48.030;11.598;2022-08-16T12:10:40;28.60;53.70
16513;DHT22;8369;48.030;11.598;2022-08-16T12:13:07;28.70;53.70
16513;DHT22;8369;48.030;11.598;2022-08-16T12:15:37;28.80;53.70
16513;DHT22;8369;48.030;11.598;2022-08-16T12:18:03;28.80;52.80
16513;DHT22;8369;48.030;11.598;2022-08-16T12:20:34;28.90;53.10
16513;DHT22;8369;48.030;11.598;2022-08-16T12:23:00;28.90;53.10
16513;DHT22;8369;48.030;11.598;2022-08-16T12:25:34;28.90;53.10
16513;DHT22;8369;48.030;11.598;2022-08-16T12:28:00;28.90;52.70
16513;DHT22;8369;48.030;11.598;2022-08-16T12:30:30;29.00;52.70
16513;DHT22;8369;48.030;11.598;2022-08-16T12:33:00;29.00;52.00
16513;DHT22;8369;48.030;11.598;2022-08-16T12:35:28;29.10;51.40
16513;DHT22;8369;48.030;11.598;2022-08-16T12:37:56;29.10;51.10
16513;DHT22;8369;48.030;11.598;2022-08-16T12:40:24;29.10;51.30
16513;DHT22;8369;48.030;11.598;2022-08-16T12:42:53;29.10;51.30
16513;DHT22;8369;48.030;11.598;2022-08-16T12:45:22;29.10;51.80
16513;DHT22;8369;48.030;11.598;2022-08-16T12:47:50;29.20;50.30
16513;DHT22;8369;48.030;11.598;2022-08-16T12:50:36;29.20;49.70
16513;DHT22;8369;48.030;11.598;2022-08-16T12:53:03;29.20;50.60
16513;DHT22;8369;48.030;11.598;2022-08-16T12:55:30;29.30;50.40
16513;DHT22;8369;48.030;11.598;2022-08-16T12:57:57;29.30;50.10
16513;DHT22;8369;48.030;11.598;2022-08-16T13:00:26;29.30;50.60
16513;DHT22;8369;48.030;11.598;2022-08-16T13:02:55;29.40;51.30
16513;DHT22;8369;48.030;11.598;2022-08-16T13:05:21;29.50;51.00
16513;DHT22;8369;48.030;11.598;2022-08-16T13:07:47;29.50;50.00
16513;DHT22;8369;48.030;11.598;2022-08-16T13:10:13;29.50;50.80
16513;DHT22;8369;48.030;11.598;2022-08-16T13:12:46;29.60;50.00
16513;DHT22;8369;48.030;11.598;2022-08-16T13:15:15;29.60;49.80
16513;DHT22;8369;48.030;11.598;2022-08-16T13:17:41;29.60;50.00
16513;DHT22;8369;48.030;11.598;2022-08-16T13:20:11;29.60;50.60
16513;DHT22;8369;48.030;11.598;2022-08-16T13:22:43;29.60;50.80
16513;DHT22;8369;48.030;11.598;2022-08-16T13:25:10;29.60;50.70
16513;DHT22;8369;48.030;11.598;2022-08-16T13:27:37;29.60;51.30
16513;DHT22;8369;48.030;11.598;2022-08-16T13:30:04;29.60;51.40
16513;DHT22;8369;48.030;11.598;2022-08-16T13:32:32;29.60;51.50
16513;DHT22;8369;48.030;11.598;2022-08-16T13:35:01;29.70;51.30
16513;DHT22;8369;48.030;11.598;2022-08-16T13:37:27;29.70;50.80
16513;DHT22;8369;48.030;11.598;2022-08-16T13:39:53;29.70;50.40
16513;DHT22;8369;48.030;11.598;2022-08-16T13:42:19;29.70;49.70
16513;DHT22;8369;48.030;11.598;2022-08-16T13:44:46;29.70;50.60
16513;DHT22;8369;48.030;11.598;2022-08-16T13:47:13;29.80;50.70
16513;DHT22;8369;48.030;11.598;2022-08-16T13:49:39;29.80;49.70
16513;DHT22;8369;48.030;11.598;2022-08-16T13:52:07;29.80;50.00
16513;DHT22;8369;48.030;11.598;2022-08-16T13:54:34;29.80;49.70
16513;DHT22;8369;48.030;11.598;2022-08-16T13:57:00;29.90;49.70
16513;DHT22;8369;48.030;11.598;2022-08-16T13:59:26;29.90;49.30
16513;DHT22;8369;48.030;11.598;2022-08-16T14:01:54;29.90;49.10
16513;DHT22;8369;48.030;11.598;2022-08-16T14:04:20;29.90;46.90
16513;DHT22;8369;48.030;11.598;2022-08-16T14:06:46;30.00;46.60
16513;DHT22;8369;48.030;11.598;2022-08-16T14:09:12;30.00;47.40
16513;DHT22;8369;48.030;11.598;2022-08-16T14:11:38;29.90;46.10
16513;DHT22;8369;48.030;11.598;2022-08-16T14:14:04;29.90;47.00
16513;DHT22;8369;48.030;11.598;2022-08-16T14:16:30;29.90;47.10
16513;DHT22;8369;48.030;11.598;2022-08-16T14:18:57;29.90;47.10
16513;DHT22;8369;48.030;11.598;2022-08-16T14:21:23;29.90;47.40
16513;DHT22;8369;48.030;11.598;2022-08-16T14:23:49;29.80;47.10
16513;DHT22;8369;48.030;11.598;2022-08-16T14:26:16;29.80;46.90
16513;DHT22;8369;48.030;11.598;2022-08-16T14:28:43;29.80;47.40
16513;DHT22;8369;48.030;11.598;2022-08-16T14:31:09;29.80;48.00
16513;DHT22;8369;48.030;11.598;2022-08-16T14:33:35;29.80;48.30
16513;DHT22;8369;48.030;11.598;2022-08-16T14:36:01;29.80;48.30
16513;DHT22;8369;48.030;11.598;2022-08-16T14:38:27;29.80;48.10
16513;DHT22;8369;48.030;11.598;2022-08-16T14:40:53;29.80;48.80
16513;DHT22;8369;48.030;11.598;2022-08-16T14:43:22;29.80;49.10
16513;DHT22;8369;48.030;11.598;2022-08-16T14:45:48;29.80;47.90
16513;DHT22;8369;48.030;11.598;2022-08-16T14:48:14;29.80;48.60
16513;DHT22;8369;48.030;11.598;2022-08-16T14:50:39;29.80;48.70
16513;DHT22;8369;48.030;11.598;2022-08-16T14:53:10;29.80;48.60
16513;DHT22;8369;48.030;11.598;2022-08-16T14:55:37;29.90;48.10
16513;DHT22;8369;48.030;11.598;2022-08-16T14:58:04;29.90;48.00
16513;DHT22;8369;48.030;11.598;2022-08-16T15:00:32;29.90;48.00
16513;DHT22;8369;48.030;11.598;2022-08-16T15:02:59;29.80;48.40
16513;DHT22;8369;48.030;11.598;2022-08-16T15:05:28;29.80;47.70
16513;DHT22;8369;48.030;11.598;2022-08-16T15:07:55;29.80;47.10
16513;DHT22;8369;48.030;11.598;2022-08-16T15:10:21;29.80;47.90
16513;DHT22;8369;48.030;11.598;2022-08-16T15:12:48;29.70;48.10
16513;DHT22;8369;48.030;11.598;2022-08-16T15:15:17;29.70;48.30
16513;DHT22;8369;48.030;11.598;2022-08-16T15:17:45;29.70;47.30
16513;DHT22;8369;48.030;11.598;2022-08-16T15:20:12;29.60;48.30
16513;DHT22;8369;48.030;11.598;2022-08-16T15:22:45;29.60;48.10
16513;DHT22;8369;48.030;11.598;2022-08-16T15:25:21;29.50;48.40
16513;DHT22;8369;48.030;11.598;2022-08-16T15:27:47;29.40;48.70
16513;DHT22;8369;48.030;11.598;2022-08-16T15:30:22;29.40;49.30
16513;DHT22;8369;48.030;11.598;2022-08-16T15:32:54;29.40;49.70
16513;DHT22;8369;48.030;11.598;2022-08-16T15:35:23;29.40;49.70